sensor_id;sensor_type;location;lat;lon;timestamp;temperature;humidity
2851;DHT22;1433;49.976;8.342;2024-02-26T00:00:41;7.50;1.00
2851;DHT22;1433;49.976;8.342;2024-02-26T00:03:07;7.60;1.00
2851;DHT22;1433;49.976;8.342;2024-02-26T00:05:33;7.60;1.00
2851;DHT22;1433;49.976;8.342;2024-02-26T00:07:59;7.60;1.00
2851;DHT22;1433;49.976;8.342;2024-02-26T00:10:25;7.60;1.00
2851;DHT22;1433;49.976;8.342;2024-02-26T00:12:51;7.60;1.00
2851;DHT22;1433;49.976;8.342;2024-02-26T00:15:17;7.60;1.00
2851;DHT22;1433;49.976;8.342;2024-02-26T00:17:43;7.60;1.00
2851;DHT22;1433;49.976;8.342;2024-02-26T00:20:10;7.50;1.00
2851;DHT22;1433;49.976;8.342;2024-02-26T00:22:37;7.60;1.00
2851;DHT22;1433;49.976;8.342;2024-02-26T00:25:04;7.60;1.00
2851;DHT22;1433;49.976;8.342;2024-02-26T00:27:30;7.60;1.00
2851;DHT22;1433;49.976;8.342;2024-02-26T00:29:56;7.60;1.00
2851;DHT22;1433;49.976;8.342;2024-02-26T00:32:22;7.60;1.00
2851;DHT22;1433;49.976;8.342;2024-02-26T00:34:48;7.60;1.00
2851;DHT22;1433;49.976;8.342;2024-02-26T00:37:14;7.70;1.00
2851;DHT22;1433;49.976;8.342;2024-02-26T00:39:40;7.60;1.00
2851;DHT22;1433;49.976;8.342;2024-02-26T00:42:06;7.60;1.00
2851;DHT22;1433;49.976;8.342;2024-02-26T00:44:32;7.60;1.00
2851;DHT22;1433;49.976;8.342;2024-02-26T00:46:57;7.50;1.00
2851;DHT22;1433;49.976;8.342;2024-02-26T00:49:23;7.50;1.00
2851;DHT22;1433;49.976;8.342;2024-02-26T00:51:49;7.50;1.00
2851;DHT22;1433;49.976;8.342;2024-02-26T00:54:15;7.60;1.00
2851;DHT22;1433;49.976;8.342;2024-02-26T00:56:41;7.60;1.00
2851;DHT22;1433;49.976;8.342;2024-02-26T00:59:07;7.60;1.00
2851;DHT22;1433;49.976;8.342;2024-02-26T01:01:32;7.60;1.00
2851;DHT22;1433;49.976;8.342;2024-02-26T01:03:58;7.60;1.00
2851;DHT22;1433;49.976;8.342;2024-02-26T01:06:24;7.60;1.00
2851;DHT22;1433;49.976;8.342;2024-02-26T01:08:50;7.60;1.00
2851;DHT22;1433;49.976;8.342;2024-02-26T01:11:16;7.70;1.00
2851;DHT22;1433;49.976;8.342;2024-02-26T01:13:42;7.60;1.00
2851;DHT22;1433;49.976;8.342;2024-02-26T01:16:07;7.60;1.00
2851;DHT22;1433;49.976;8.342;2024-02-26T01:18:33;7.60;1.00
2851;DHT22;1433;49.976;8.342;2024-02-26T01:20:59;7.60;1.00
2851;DHT22;1433;49.976;8.342;2024-02-26T01:23:25;7.60;1.00
2851;DHT22;1433;49.976;8.342;2024-02-26T01:25:51;7.60;1.00
2851;DHT22;1433;49.976;8.342;2024-02-26T01:28:17;7.60;1.00
2851;DHT22;1433;49.976;8.342;2024-02-26T01:30:43;7.60;1.00
2851;DHT22;1433;49.976;8.342;2024-02-26T01:33:08;7.60;1.00
2851;DHT22;1433;49.976;8.342;2024-02-26T01:35:34;7.70;1.00
2851;DHT22;1433;49.976;8.342;2024-02-26T01:38:00;7.70;1.00
2851;DHT22;1433;49.976;8.342;2024-02-26T01:40:29;7.80;1.00
2851;DHT22;1433;49.976;8.342;2024-02-26T01:42:55;7.70;1.00
2851;DHT22;1433;49.976;8.342;2024-02-26T01:45:21;7.60;1.00
2851;DHT22;1433;49.976;8.342;2024-02-26T01:47:53;7.70;1.00
2851;DHT22;1433;49.976;8.342;2024-02-26T01:50:19;7.70;1.00
2851;DHT22;1433;49.976;8.342;2024-02-26T01:52:47;7.70;1.00
2851;DHT22;1433;49.976;8.342;2024-02-26T01:55:15;7.70;1.00
2851;DHT22;1433;49.976;8.342;2024-02-26T01:57:45;7.70;1.00
2851;DHT22;1433;49.976;8.342;2024-02-26T02:00:13;7.90;1.00
2851;DHT22;1433;49.976;8.342;2024-02-26T02:02:41;7.70;1.00
2851;DHT22;1433;49.976;8.342;2024-02-26T02:05:08;7.70;1.00
2851;DHT22;1433;49.976;8.342;2024-02-26T02:07:35;7.70;1.00
2851;DHT22;1433;49.976;8.342;2024-02-26T02:10:01;7.70;1.00
2851;DHT22;1433;49.976;8.342;2024-02-26T02:12:28;7.70;1.00
2851;DHT22;1433;49.976;8.342;2024-02-26T02:14:54;7.90;1.00
2851;DHT22;1433;49.976;8.342;2024-02-26T02:17:20;7.70;1.00
2851;DHT22;1433;49.976;8.342;2024-02-26T02:19:46;7.70;1.00
2851;DHT22;1433;49.976;8.342;2024-02-26T02:22:12;7.70;1.00
2851;DHT22;1433;49.976;8.342;2024-02-26T02:24:38;7.70;1.00
2851;DHT22;1433;49.976;8.342;2024-02-26T02:27:04;7.70;1.00
2851;DHT22;1433;49.976;8.342;2024-02-26T02:29:30;7.70;1.00
2851;DHT22;1433;49.976;8.342;2024-02-26T02:31:56;7.90;1.00
2851;DHT22;1433;49.976;8.342;2024-02-26T02:34:23;7.70;1.00
2851;DHT22;1433;49.976;8.342;2024-02-26T02:36:52;7.60;1.00
2851;DHT22;1433;49.976;8.342;2024-02-26T02:39:19;7.60;1.00
2851;DHT22;1433;49.976;8.342;2024-02-26T02:41:44;7.60;1.00
2851;DHT22;1433;49.976;8.342;2024-02-26T02:44:10;7.60;1.00
2851;DHT22;1433;49.976;8.342;2024-02-26T02:46:36;7.60;1.00
2851;DHT22;1433;49.976;8.342;2024-02-26T02:49:02;7.80;1.00
2851;DHT22;1433;49.976;8.342;2024-02-26T02:51:28;7.60;1.00
2851;DHT22;1433;49.976;8.342;2024-02-26T02:53:54;7.60;1.00
2851;DHT22;1433;49.976;8.342;2024-02-26T02:56:20;7.70;1.00
2851;DHT22;1433;49.976;8.342;2024-02-26T02:58:46;7.70;1.00
2851;DHT22;1433;49.976;8.342;2024-02-26T03:01:13;7.80;1.00
2851;DHT22;1433;49.976;8.342;2024-02-26T03:03:39;7.70;1.00
2851;DHT22;1433;49.976;8.342;2024-02-26T03:06:05;7.70;1.00
2851;DHT22;1433;49.976;8.342;2024-02-26T03:08:31;7.70;1.00
2851;DHT22;1433;49.976;8.342;2024-02-26T03:10:58;7.70;1.00
2851;DHT22;1433;49.976;8.342;2024-02-26T03:13:25;7.70;1.00
2851;DHT22;1433;49.976;8.342;2024-02-26T03:15:51;7.80;1.00
2851;DHT22;1433;49.976;8.342;2024-02-26T03:18:17;7.80;1.00
2851;DHT22;1433;49.976;8.342;2024-02-26T03:20:43;7.70;99.90
2851;DHT22;1433;49.976;8.342;2024-02-26T03:23:08;7.70;99.90
2851;DHT22;1433;49.976;8.342;2024-02-26T03:25:38;7.70;99.90
2851;DHT22;1433;49.976;8.342;2024-02-26T03:28:04;7.70;99.90
2851;DHT22;1433;49.976;8.342;2024-02-26T03:30:30;7.70;1.00
2851;DHT22;1433;49.976;8.342;2024-02-26T03:32:56;7.60;99.90
2851;DHT22;1433;49.976;8.342;2024-02-26T03:35:22;7.50;99.90
2851;DHT22;1433;49.976;8.342;2024-02-26T03:37:48;7.40;1.00
2851;DHT22;1433;49.976;8.342;2024-02-26T03:40:16;7.30;99.90
2851;DHT22;1433;49.976;8.342;2024-02-26T03:42:44;7.20;99.90
2851;DHT22;1433;49.976;8.342;2024-02-26T03:45:10;7.20;1.00
2851;DHT22;1433;49.976;8.342;2024-02-26T03:47:37;7.10;1.00
2851;DHT22;1433;49.976;8.342;2024-02-26T03:50:07;7.10;1.00
2851;DHT22;1433;49.976;8.342;2024-02-26T03:52:33;7.10;1.00
2851;DHT22;1433;49.976;8.342;2024-02-26T03:54:59;7.00;1.00
2851;DHT22;1433;49.976;8.342;2024-02-26T03:57:25;6.90;78.20
2851;DHT22;1433;49.976;8.342;2024-02-26T03:59:51;6.80;99.90
2851;DHT22;1433;49.976;8.342;2024-02-26T04:02:17;6.70;99.90
2851;DHT22;1433;49.976;8.342;2024-02-26T04:04:46;6.60;99.90
2851;DHT22;1433;49.976;8.342;2024-02-26T04:07:12;6.60;99.90
2851;DHT22;1433;49.976;8.342;2024-02-26T04:09:39;6.60;99.90
2851;DHT22;1433;49.976;8.342;2024-02-26T04:12:05;6.50;99.90
2851;DHT22;1433;49.976;8.342;2024-02-26T04:14:31;6.50;99.90
2851;DHT22;1433;49.976;8.342;2024-02-26T04:16:57;6.40;99.90
2851;DHT22;1433;49.976;8.342;2024-02-26T04:19:23;6.40;99.90
2851;DHT22;1433;49.976;8.342;2024-02-26T04:21:48;6.30;99.90
2851;DHT22;1433;49.976;8.342;2024-02-26T04:24:14;6.30;99.90
2851;DHT22;1433;49.976;8.342;2024-02-26T04:26:40;6.20;99.90
2851;DHT22;1433;49.976;8.342;2024-02-26T04:29:06;6.20;99.90
2851;DHT22;1433;49.976;8.342;2024-02-26T04:31:32;6.20;99.90
2851;DHT22;1433;49.976;8.342;2024-02-26T04:33:58;6.20;99.90
2851;DHT22;1433;49.976;8.342;2024-02-26T04:36:25;6.20;99.90
2851;DHT22;1433;49.976;8.342;2024-02-26T04:38:51;6.20;99.90
2851;DHT22;1433;49.976;8.342;2024-02-26T04:41:20;6.20;99.90
2851;DHT22;1433;49.976;8.342;2024-02-26T04:43:45;6.20;99.90
2851;DHT22;1433;49.976;8.342;2024-02-26T04:46:11;6.20;99.90
2851;DHT22;1433;49.976;8.342;2024-02-26T04:48:37;6.20;99.90
2851;DHT22;1433;49.976;8.342;2024-02-26T04:51:12;6.30;99.90
2851;DHT22;1433;49.976;8.342;2024-02-26T04:53:37;6.30;99.90
2851;DHT22;1433;49.976;8.342;2024-02-26T04:56:04;6.30;99.90
2851;DHT22;1433;49.976;8.342;2024-02-26T04:58:30;6.30;99.90
2851;DHT22;1433;49.976;8.342;2024-02-26T05:00:56;6.40;99.90
2851;DHT22;1433;49.976;8.342;2024-02-26T05:03:21;6.40;99.90
2851;DHT22;1433;49.976;8.342;2024-02-26T05:05:47;6.30;99.90
2851;DHT22;1433;49.976;8.342;2024-02-26T05:08:13;6.30;99.90
2851;DHT22;1433;49.976;8.342;2024-02-26T05:10:39;6.40;99.90
2851;DHT22;1433;49.976;8.342;2024-02-26T05:13:06;6.40;99.90
2851;DHT22;1433;49.976;8.342;2024-02-26T05:15:32;6.40;99.90
2851;DHT22;1433;49.976;8.342;2024-02-26T05:17:58;6.40;99.90
2851;DHT22;1433;49.976;8.342;2024-02-26T05:20:25;6.40;99.90
2851;DHT22;1433;49.976;8.342;2024-02-26T05:22:51;6.40;99.90
2851;DHT22;1433;49.976;8.342;2024-02-26T05:25:17;6.30;99.90
2851;DHT22;1433;49.976;8.342;2024-02-26T05:27:44;6.30;99.90
2851;DHT22;1433;49.976;8.342;2024-02-26T05:30:11;6.30;99.90
2851;DHT22;1433;49.976;8.342;2024-02-26T05:32:37;6.30;99.90
2851;DHT22;1433;49.976;8.342;2024-02-26T05:35:03;6.40;99.90
2851;DHT22;1433;49.976;8.342;2024-02-26T05:37:30;6.20;99.90
2851;DHT22;1433;49.976;8.342;2024-02-26T05:39:56;6.20;99.90
2851;DHT22;1433;49.976;8.342;2024-02-26T05:42:21;6.20;99.90
2851;DHT22;1433;49.976;8.342;2024-02-26T05:44:47;6.20;99.90
2851;DHT22;1433;49.976;8.342;2024-02-26T05:47:13;6.20;99.90
2851;DHT22;1433;49.976;8.342;2024-02-26T05:49:39;6.20;99.90
2851;DHT22;1433;49.976;8.342;2024-02-26T05:52:06;6.10;99.90
2851;DHT22;1433;49.976;8.342;2024-02-26T05:54:32;6.20;99.90
2851;DHT22;1433;49.976;8.342;2024-02-26T05:56:58;6.00;99.90
2851;DHT22;1433;49.976;8.342;2024-02-26T05:59:24;6.00;99.90
2851;DHT22;1433;49.976;8.342;2024-02-26T06:01:50;6.00;99.90
2851;DHT22;1433;49.976;8.342;2024-02-26T06:04:16;6.00;99.90
2851;DHT22;1433;49.976;8.342;2024-02-26T06:06:45;5.90;99.90
2851;DHT22;1433;49.976;8.342;2024-02-26T06:09:13;5.90;99.90
2851;DHT22;1433;49.976;8.342;2024-02-26T06:11:39;5.90;99.90
2851;DHT22;1433;49.976;8.342;2024-02-26T06:14:05;5.90;99.90
2851;DHT22;1433;49.976;8.342;2024-02-26T06:16:31;5.90;99.90
2851;DHT22;1433;49.976;8.342;2024-02-26T06:18:57;5.90;99.90
2851;DHT22;1433;49.976;8.342;2024-02-26T06:21:23;5.90;99.90
2851;DHT22;1433;49.976;8.342;2024-02-26T06:23:49;6.00;99.90
2851;DHT22;1433;49.976;8.342;2024-02-26T06:26:16;6.00;99.90
2851;DHT22;1433;49.976;8.342;2024-02-26T06:28:42;6.00;99.90
2851;DHT22;1433;49.976;8.342;2024-02-26T06:31:07;6.20;99.90
2851;DHT22;1433;49.976;8.342;2024-02-26T06:33:33;6.10;99.90
2851;DHT22;1433;49.976;8.342;2024-02-26T06:35:59;6.10;99.90
2851;DHT22;1433;49.976;8.342;2024-02-26T06:38:25;6.10;99.90
2851;DHT22;1433;49.976;8.342;2024-02-26T06:40:51;6.00;99.90
2851;DHT22;1433;49.976;8.342;2024-02-26T06:43:17;6.00;99.90
2851;DHT22;1433;49.976;8.342;2024-02-26T06:45:43;6.00;99.90
2851;DHT22;1433;49.976;8.342;2024-02-26T06:48:08;6.00;99.90
2851;DHT22;1433;49.976;8.342;2024-02-26T06:50:34;6.00;99.90
2851;DHT22;1433;49.976;8.342;2024-02-26T06:53:00;6.00;99.90
2851;DHT22;1433;49.976;8.342;2024-02-26T06:55:26;6.00;99.90
2851;DHT22;1433;49.976;8.342;2024-02-26T06:57:52;6.00;99.90
2851;DHT22;1433;49.976;8.342;2024-02-26T07:00:18;6.10;99.90
2851;DHT22;1433;49.976;8.342;2024-02-26T07:02:44;6.10;99.90
2851;DHT22;1433;49.976;8.342;2024-02-26T07:05:10;6.10;99.90
2851;DHT22;1433;49.976;8.342;2024-02-26T07:07:36;6.10;99.90
2851;DHT22;1433;49.976;8.342;2024-02-26T07:10:02;6.10;99.90
2851;DHT22;1433;49.976;8.342;2024-02-26T07:12:32;6.10;99.90
2851;DHT22;1433;49.976;8.342;2024-02-26T07:14:58;6.10;99.90
2851;DHT22;1433;49.976;8.342;2024-02-26T07:17:24;6.20;99.90
2851;DHT22;1433;49.976;8.342;2024-02-26T07:19:50;6.00;99.90
2851;DHT22;1433;49.976;8.342;2024-02-26T07:22:16;6.00;99.90
2851;DHT22;1433;49.976;8.342;2024-02-26T07:24:42;6.10;99.90
2851;DHT22;1433;49.976;8.342;2024-02-26T07:27:07;6.10;99.90
2851;DHT22;1433;49.976;8.342;2024-02-26T07:29:34;6.10;99.90
2851;DHT22;1433;49.976;8.342;2024-02-26T07:31:59;6.10;99.90
2851;DHT22;1433;49.976;8.342;2024-02-26T07:34:25;6.10;99.90
2851;DHT22;1433;49.976;8.342;2024-02-26T07:36:55;6.10;99.90
2851;DHT22;1433;49.976;8.342;2024-02-26T07:39:22;6.10;99.90
2851;DHT22;1433;49.976;8.342;2024-02-26T07:41:48;6.10;99.90
2851;DHT22;1433;49.976;8.342;2024-02-26T07:44:17;6.20;99.90
2851;DHT22;1433;49.976;8.342;2024-02-26T07:46:43;6.20;99.90
2851;DHT22;1433;49.976;8.342;2024-02-26T07:49:09;6.20;99.90
2851;DHT22;1433;49.976;8.342;2024-02-26T07:51:34;6.20;99.90
2851;DHT22;1433;49.976;8.342;2024-02-26T07:54:00;6.30;99.90
2851;DHT22;1433;49.976;8.342;2024-02-26T07:56:26;6.40;99.90
2851;DHT22;1433;49.976;8.342;2024-02-26T07:58:52;6.20;99.90
2851;DHT22;1433;49.976;8.342;2024-02-26T08:01:18;6.40;99.90
2851;DHT22;1433;49.976;8.342;2024-02-26T08:03:43;6.50;99.90
2851;DHT22;1433;49.976;8.342;2024-02-26T08:06:10;6.60;99.90
2851;DHT22;1433;49.976;8.342;2024-02-26T08:08:35;6.60;99.90
2851;DHT22;1433;49.976;8.342;2024-02-26T08:11:01;6.70;99.90
2851;DHT22;1433;49.976;8.342;2024-02-26T08:13:27;6.70;99.90
2851;DHT22;1433;49.976;8.342;2024-02-26T08:15:53;6.60;99.90
2851;DHT22;1433;49.976;8.342;2024-02-26T08:18:19;6.60;99.90
2851;DHT22;1433;49.976;8.342;2024-02-26T08:20:45;6.60;99.90
2851;DHT22;1433;49.976;8.342;2024-02-26T08:23:11;6.60;99.90
2851;DHT22;1433;49.976;8.342;2024-02-26T08:25:37;6.50;99.90
2851;DHT22;1433;49.976;8.342;2024-02-26T08:28:03;6.50;99.90
2851;DHT22;1433;49.976;8.342;2024-02-26T08:30:29;6.60;99.90
2851;DHT22;1433;49.976;8.342;2024-02-26T08:32:55;6.60;99.90
2851;DHT22;1433;49.976;8.342;2024-02-26T08:35:21;6.50;99.90
2851;DHT22;1433;49.976;8.342;2024-02-26T08:37:47;6.70;99.90
2851;DHT22;1433;49.976;8.342;2024-02-26T08:40:15;6.90;99.90
2851;DHT22;1433;49.976;8.342;2024-02-26T08:42:40;7.00;99.90
2851;DHT22;1433;49.976;8.342;2024-02-26T08:45:07;6.90;99.90
2851;DHT22;1433;49.976;8.342;2024-02-26T08:47:34;7.10;99.90
2851;DHT22;1433;49.976;8.342;2024-02-26T08:50:04;7.10;99.90
2851;DHT22;1433;49.976;8.342;2024-02-26T08:52:30;7.10;99.90
2851;DHT22;1433;49.976;8.342;2024-02-26T08:54:56;7.10;99.90
2851;DHT22;1433;49.976;8.342;2024-02-26T08:57:23;7.20;99.90
2851;DHT22;1433;49.976;8.342;2024-02-26T08:59:49;7.10;99.90
2851;DHT22;1433;49.976;8.342;2024-02-26T09:02:14;7.00;99.90
2851;DHT22;1433;49.976;8.342;2024-02-26T09:04:40;6.90;99.90
2851;DHT22;1433;49.976;8.342;2024-02-26T09:07:06;6.80;99.90
2851;DHT22;1433;49.976;8.342;2024-02-26T09:09:32;6.80;99.90
2851;DHT22;1433;49.976;8.342;2024-02-26T09:11:57;6.80;99.90
2851;DHT22;1433;49.976;8.342;2024-02-26T09:14:23;6.80;99.90
2851;DHT22;1433;49.976;8.342;2024-02-26T09:16:49;6.80;99.90
2851;DHT22;1433;49.976;8.342;2024-02-26T09:19:15;6.90;99.90
2851;DHT22;1433;49.976;8.342;2024-02-26T09:21:45;7.00;99.90
2851;DHT22;1433;49.976;8.342;2024-02-26T09:24:11;7.20;99.90
2851;DHT22;1433;49.976;8.342;2024-02-26T09:26:38;7.40;99.90
2851;DHT22;1433;49.976;8.342;2024-02-26T09:29:04;7.40;99.90
2851;DHT22;1433;49.976;8.342;2024-02-26T09:31:30;7.60;99.90
2851;DHT22;1433;49.976;8.342;2024-02-26T09:33:57;7.70;99.90
2851;DHT22;1433;49.976;8.342;2024-02-26T09:36:23;7.70;99.90
2851;DHT22;1433;49.976;8.342;2024-02-26T09:38:49;7.70;99.90
2851;DHT22;1433;49.976;8.342;2024-02-26T09:41:15;7.70;99.90
2851;DHT22;1433;49.976;8.342;2024-02-26T09:43:44;7.70;99.90
2851;DHT22;1433;49.976;8.342;2024-02-26T09:46:13;7.70;99.90
2851;DHT22;1433;49.976;8.342;2024-02-26T09:48:42;7.80;99.90
2851;DHT22;1433;49.976;8.342;2024-02-26T09:51:10;7.80;99.90
2851;DHT22;1433;49.976;8.342;2024-02-26T09:53:38;7.80;99.90
2851;DHT22;1433;49.976;8.342;2024-02-26T09:56:08;8.00;99.90
2851;DHT22;1433;49.976;8.342;2024-02-26T09:58:36;8.20;99.90
2851;DHT22;1433;49.976;8.342;2024-02-26T10:01:09;8.50;99.90
2851;DHT22;1433;49.976;8.342;2024-02-26T10:03:43;8.60;99.90
2851;DHT22;1433;49.976;8.342;2024-02-26T10:06:13;8.60;99.90
2851;DHT22;1433;49.976;8.342;2024-02-26T10:08:39;8.80;99.90
2851;DHT22;1433;49.976;8.342;2024-02-26T10:11:07;8.90;99.90
2851;DHT22;1433;49.976;8.342;2024-02-26T10:13:35;9.30;99.90
2851;DHT22;1433;49.976;8.342;2024-02-26T10:16:03;9.50;99.90
2851;DHT22;1433;49.976;8.342;2024-02-26T10:21:17;9.70;1.00
2851;DHT22;1433;49.976;8.342;2024-02-26T10:23:44;9.60;1.00
2851;DHT22;1433;49.976;8.342;2024-02-26T10:26:13;9.80;1.00
2851;DHT22;1433;49.976;8.342;2024-02-26T10:28:42;9.90;1.00
2851;DHT22;1433;49.976;8.342;2024-02-26T10:31:10;10.00;1.00
2851;DHT22;1433;49.976;8.342;2024-02-26T10:33:37;9.80;1.00
2851;DHT22;1433;49.976;8.342;2024-02-26T10:36:07;9.90;1.00
2851;DHT22;1433;49.976;8.342;2024-02-26T10:38:35;9.90;1.00
2851;DHT22;1433;49.976;8.342;2024-02-26T10:41:06;9.90;1.00
2851;DHT22;1433;49.976;8.342;2024-02-26T10:43:34;9.90;1.00
2851;DHT22;1433;49.976;8.342;2024-02-26T10:46:00;9.90;1.00
2851;DHT22;1433;49.976;8.342;2024-02-26T10:48:32;9.90;1.00
2851;DHT22;1433;49.976;8.342;2024-02-26T10:50:58;10.10;1.00
2851;DHT22;1433;49.976;8.342;2024-02-26T10:53:28;10.10;1.00
2851;DHT22;1433;49.976;8.342;2024-02-26T10:55:59;10.00;1.00
2851;DHT22;1433;49.976;8.342;2024-02-26T10:58:27;10.00;1.00
2851;DHT22;1433;49.976;8.342;2024-02-26T11:00:56;10.00;1.00
2851;DHT22;1433;49.976;8.342;2024-02-26T11:03:23;10.10;1.00
2851;DHT22;1433;49.976;8.342;2024-02-26T11:05:50;10.20;1.00
2851;DHT22;1433;49.976;8.342;2024-02-26T11:08:20;10.20;99.90
2851;DHT22;1433;49.976;8.342;2024-02-26T11:10:48;10.20;1.00
2851;DHT22;1433;49.976;8.342;2024-02-26T11:13:15;10.50;1.00
2851;DHT22;1433;49.976;8.342;2024-02-26T11:15:53;10.40;1.00
2851;DHT22;1433;49.976;8.342;2024-02-26T11:18:21;10.40;1.00
2851;DHT22;1433;49.976;8.342;2024-02-26T11:20:49;10.30;99.90
2851;DHT22;1433;49.976;8.342;2024-02-26T11:23:16;10.50;99.90
2851;DHT22;1433;49.976;8.342;2024-02-26T11:25:43;10.60;99.90
2851;DHT22;1433;49.976;8.342;2024-02-26T11:28:11;10.60;1.00
2851;DHT22;1433;49.976;8.342;2024-02-26T11:30:42;10.70;99.90
2851;DHT22;1433;49.976;8.342;2024-02-26T11:33:10;10.80;20.90
2851;DHT22;1433;49.976;8.342;2024-02-26T11:35:38;10.80;99.90
2851;DHT22;1433;49.976;8.342;2024-02-26T11:38:04;10.80;99.90
2851;DHT22;1433;49.976;8.342;2024-02-26T11:40:33;10.70;1.00
2851;DHT22;1433;49.976;8.342;2024-02-26T11:43:05;10.80;99.90
2851;DHT22;1433;49.976;8.342;2024-02-26T11:48:15;11.10;1.00
2851;DHT22;1433;49.976;8.342;2024-02-26T11:50:50;11.40;1.00
2851;DHT22;1433;49.976;8.342;2024-02-26T11:56:21;12.90;1.00
2851;DHT22;1433;49.976;8.342;2024-02-26T11:59:05;13.60;70.40
2851;DHT22;1433;49.976;8.342;2024-02-26T12:01:36;14.10;99.90
2851;DHT22;1433;49.976;8.342;2024-02-26T12:04:21;13.70;99.90
2851;DHT22;1433;49.976;8.342;2024-02-26T12:06:57;13.50;1.00
2851;DHT22;1433;49.976;8.342;2024-02-26T12:11:57;13.10;99.90
2851;DHT22;1433;49.976;8.342;2024-02-26T12:14:26;12.80;99.90
2851;DHT22;1433;49.976;8.342;2024-02-26T12:16:53;12.50;1.00
2851;DHT22;1433;49.976;8.342;2024-02-26T12:19:21;12.20;1.00
2851;DHT22;1433;49.976;8.342;2024-02-26T12:21:51;12.30;1.00
2851;DHT22;1433;49.976;8.342;2024-02-26T12:24:20;12.10;99.90
2851;DHT22;1433;49.976;8.342;2024-02-26T12:26:47;12.00;99.90
2851;DHT22;1433;49.976;8.342;2024-02-26T12:29:13;11.80;99.90
2851;DHT22;1433;49.976;8.342;2024-02-26T12:31:40;11.60;50.90
2851;DHT22;1433;49.976;8.342;2024-02-26T12:34:06;11.80;48.00
2851;DHT22;1433;49.976;8.342;2024-02-26T12:36:35;11.80;1.00
2851;DHT22;1433;49.976;8.342;2024-02-26T12:39:04;12.00;1.00
2851;DHT22;1433;49.976;8.342;2024-02-26T12:41:33;12.20;99.90
2851;DHT22;1433;49.976;8.342;2024-02-26T12:43:59;12.40;38.90
2851;DHT22;1433;49.976;8.342;2024-02-26T12:46:25;12.50;1.00
2851;DHT22;1433;49.976;8.342;2024-02-26T12:48:51;12.70;99.90
2851;DHT22;1433;49.976;8.342;2024-02-26T12:51:17;13.10;1.00
2851;DHT22;1433;49.976;8.342;2024-02-26T12:53:47;13.20;1.00
2851;DHT22;1433;49.976;8.342;2024-02-26T12:56:16;13.40;1.00
2851;DHT22;1433;49.976;8.342;2024-02-26T12:58:42;13.30;99.90
2851;DHT22;1433;49.976;8.342;2024-02-26T13:01:15;13.20;1.00
2851;DHT22;1433;49.976;8.342;2024-02-26T13:03:44;13.50;1.00
2851;DHT22;1433;49.976;8.342;2024-02-26T13:06:10;13.80;99.90
2851;DHT22;1433;49.976;8.342;2024-02-26T13:08:36;13.70;99.90
2851;DHT22;1433;49.976;8.342;2024-02-26T13:11:02;13.60;99.90
2851;DHT22;1433;49.976;8.342;2024-02-26T13:13:28;13.70;99.90
2851;DHT22;1433;49.976;8.342;2024-02-26T13:16:07;13.70;1.00
2851;DHT22;1433;49.976;8.342;2024-02-26T13:18:36;13.70;1.00
2851;DHT22;1433;49.976;8.342;2024-02-26T13:23:41;13.30;99.90
2851;DHT22;1433;49.976;8.342;2024-02-26T13:26:08;13.10;1.00
2851;DHT22;1433;49.976;8.342;2024-02-26T13:28:37;12.80;1.00
2851;DHT22;1433;49.976;8.342;2024-02-26T13:31:04;12.80;1.00
2851;DHT22;1433;49.976;8.342;2024-02-26T13:33:33;13.10;1.00
2851;DHT22;1433;49.976;8.342;2024-02-26T13:36:00;13.50;99.90
2851;DHT22;1433;49.976;8.342;2024-02-26T13:38:29;14.20;27.40
2851;DHT22;1433;49.976;8.342;2024-02-26T13:40:55;14.20;1.00
2851;DHT22;1433;49.976;8.342;2024-02-26T13:43:21;14.20;1.00
2851;DHT22;1433;49.976;8.342;2024-02-26T13:45:47;14.10;1.00
2851;DHT22;1433;49.976;8.342;2024-02-26T13:48:14;14.40;1.00
2851;DHT22;1433;49.976;8.342;2024-02-26T13:50:41;14.30;1.00
2851;DHT22;1433;49.976;8.342;2024-02-26T13:53:12;14.10;1.00
2851;DHT22;1433;49.976;8.342;2024-02-26T13:55:39;13.60;1.00
2851;DHT22;1433;49.976;8.342;2024-02-26T13:58:08;13.30;99.90
2851;DHT22;1433;49.976;8.342;2024-02-26T14:00:37;13.20;99.90
2851;DHT22;1433;49.976;8.342;2024-02-26T14:03:03;13.20;99.90
2851;DHT22;1433;49.976;8.342;2024-02-26T14:05:29;13.10;99.90
2851;DHT22;1433;49.976;8.342;2024-02-26T14:07:55;13.00;1.00
2851;DHT22;1433;49.976;8.342;2024-02-26T14:10:21;12.80;99.90
2851;DHT22;1433;49.976;8.342;2024-02-26T14:12:47;12.60;1.00
2851;DHT22;1433;49.976;8.342;2024-02-26T14:15:13;12.60;99.90
2851;DHT22;1433;49.976;8.342;2024-02-26T14:17:38;12.60;1.00
2851;DHT22;1433;49.976;8.342;2024-02-26T14:20:05;12.60;99.90
2851;DHT22;1433;49.976;8.342;2024-02-26T14:22:33;12.50;99.90
2851;DHT22;1433;49.976;8.342;2024-02-26T14:24:59;12.30;1.00
2851;DHT22;1433;49.976;8.342;2024-02-26T14:27:25;12.00;1.00
2851;DHT22;1433;49.976;8.342;2024-02-26T14:29:51;11.80;99.90
2851;DHT22;1433;49.976;8.342;2024-02-26T14:32:17;11.70;1.00
2851;DHT22;1433;49.976;8.342;2024-02-26T14:34:43;11.70;1.00
2851;DHT22;1433;49.976;8.342;2024-02-26T14:37:09;11.70;1.00
2851;DHT22;1433;49.976;8.342;2024-02-26T14:39:34;11.70;1.00
2851;DHT22;1433;49.976;8.342;2024-02-26T14:42:01;11.70;39.90
2851;DHT22;1433;49.976;8.342;2024-02-26T14:44:27;11.70;1.00
2851;DHT22;1433;49.976;8.342;2024-02-26T14:46:53;11.70;99.90
2851;DHT22;1433;49.976;8.342;2024-02-26T14:49:19;11.80;1.00
2851;DHT22;1433;49.976;8.342;2024-02-26T14:51:45;11.60;99.90
2851;DHT22;1433;49.976;8.342;2024-02-26T14:54:12;11.60;1.00
2851;DHT22;1433;49.976;8.342;2024-02-26T14:56:38;11.70;1.00
2851;DHT22;1433;49.976;8.342;2024-02-26T14:59:04;11.70;1.00
2851;DHT22;1433;49.976;8.342;2024-02-26T15:01:30;11.80;1.00
2851;DHT22;1433;49.976;8.342;2024-02-26T15:03:56;11.70;99.90
2851;DHT22;1433;49.976;8.342;2024-02-26T15:06:23;11.70;99.90
2851;DHT22;1433;49.976;8.342;2024-02-26T15:08:49;11.60;1.00
2851;DHT22;1433;49.976;8.342;2024-02-26T15:11:15;11.50;1.00
2851;DHT22;1433;49.976;8.342;2024-02-26T15:13:41;11.60;99.90
2851;DHT22;1433;49.976;8.342;2024-02-26T15:16:07;11.50;1.00
2851;DHT22;1433;49.976;8.342;2024-02-26T15:18:36;11.50;1.00
2851;DHT22;1433;49.976;8.342;2024-02-26T15:21:03;11.60;99.90
2851;DHT22;1433;49.976;8.342;2024-02-26T15:23:29;11.60;1.00
2851;DHT22;1433;49.976;8.342;2024-02-26T15:25:55;11.50;1.00
2851;DHT22;1433;49.976;8.342;2024-02-26T15:28:20;11.50;1.00
2851;DHT22;1433;49.976;8.342;2024-02-26T15:30:46;11.60;1.00
2851;DHT22;1433;49.976;8.342;2024-02-26T15:33:13;11.40;1.00
2851;DHT22;1433;49.976;8.342;2024-02-26T15:35:40;11.20;1.00
2851;DHT22;1433;49.976;8.342;2024-02-26T15:38:10;11.10;99.90
2851;DHT22;1433;49.976;8.342;2024-02-26T15:40:36;11.10;99.90
2851;DHT22;1433;49.976;8.342;2024-02-26T15:43:02;11.10;99.90
2851;DHT22;1433;49.976;8.342;2024-02-26T15:45:28;11.10;1.00
2851;DHT22;1433;49.976;8.342;2024-02-26T15:47:59;11.10;1.00
2851;DHT22;1433;49.976;8.342;2024-02-26T15:50:26;11.10;1.00
2851;DHT22;1433;49.976;8.342;2024-02-26T15:52:53;11.10;1.00
2851;DHT22;1433;49.976;8.342;2024-02-26T15:55:21;11.10;1.00
2851;DHT22;1433;49.976;8.342;2024-02-26T15:57:47;11.00;1.00
2851;DHT22;1433;49.976;8.342;2024-02-26T16:00:13;10.90;1.00
2851;DHT22;1433;49.976;8.342;2024-02-26T16:02:40;10.80;1.00
2851;DHT22;1433;49.976;8.342;2024-02-26T16:05:08;10.80;1.00
2851;DHT22;1433;49.976;8.342;2024-02-26T16:07:49;10.70;64.50
2851;DHT22;1433;49.976;8.342;2024-02-26T16:10:19;10.70;99.90
2851;DHT22;1433;49.976;8.342;2024-02-26T16:12:55;10.60;92.70
2851;DHT22;1433;49.976;8.342;2024-02-26T16:15:26;10.60;99.90
2851;DHT22;1433;49.976;8.342;2024-02-26T16:17:53;10.60;99.90
2851;DHT22;1433;49.976;8.342;2024-02-26T16:20:22;10.70;99.90
2851;DHT22;1433;49.976;8.342;2024-02-26T16:22:50;10.70;99.90
2851;DHT22;1433;49.976;8.342;2024-02-26T16:25:17;10.60;99.90
2851;DHT22;1433;49.976;8.342;2024-02-26T16:27:46;10.70;99.90
2851;DHT22;1433;49.976;8.342;2024-02-26T16:30:14;10.70;99.90